createdAt,value
2019-01-08T00:00:24.071Z,75.18
2019-01-08T00:02:53.470Z,75.24
2019-01-08T00:05:22.821Z,75.25
2019-01-08T00:07:52.268Z,75.19
2019-01-08T00:10:21.972Z,74.87
2019-01-08T00:12:51.406Z,75.10
2019-01-08T00:15:22.212Z,75.22
2019-01-08T00:17:51.536Z,75.13
2019-01-08T00:20:21.112Z,75.11
2019-01-08T00:22:52.261Z,75.16
2019-01-08T00:25:21.646Z,75.14
2019-01-08T00:27:51.028Z,75.18
2019-01-08T00:30:20.449Z,75.16
2019-01-08T00:32:52.047Z,75.47
2019-01-08T00:35:21.402Z,75.49
2019-01-08T00:37:50.771Z,75.40
2019-01-08T00:40:20.162Z,75.51
2019-01-08T00:42:49.873Z,75.28
2019-01-08T00:45:19.345Z,75.06
2019-01-08T00:47:48.997Z,75.14
2019-01-08T00:50:18.397Z,75.17
2019-01-08T00:52:47.780Z,75.24
2019-01-08T00:55:18.142Z,75.38
2019-01-08T00:57:47.519Z,75.45
2019-01-08T01:00:17.130Z,75.44
2019-01-08T01:02:46.558Z,75.45
2019-01-08T01:05:15.887Z,76.00
2019-01-08T01:07:45.244Z,76.18
2019-01-08T01:10:14.541Z,76.20
2019-01-08T01:12:43.900Z,76.15
2019-01-08T01:15:13.330Z,76.53
2019-01-08T01:17:42.709Z,76.67
2019-01-08T01:20:12.032Z,76.47
2019-01-08T01:22:41.435Z,76.44
2019-01-08T01:25:10.858Z,76.23
2019-01-08T01:27:40.221Z,76.33
2019-01-08T01:30:10.715Z,76.42
2019-01-08T01:32:40.145Z,76.37
2019-01-08T01:35:09.526Z,76.07
2019-01-08T01:37:38.887Z,75.90
2019-01-08T01:40:08.188Z,76.15
2019-01-08T01:42:37.548Z,76.19
2019-01-08T01:45:06.877Z,75.79
2019-01-08T01:47:36.199Z,75.55
2019-01-08T01:50:06.236Z,75.57
2019-01-08T01:52:35.616Z,75.87
2019-01-08T01:55:05.122Z,75.98
2019-01-08T01:57:34.576Z,76.09
2019-01-08T02:00:05.878Z,75.91
2019-01-08T02:02:35.258Z,75.81
2019-01-08T02:05:05.008Z,76.07
2019-01-08T02:07:34.414Z,75.90
2019-01-08T02:10:03.818Z,75.95
2019-01-08T02:12:33.175Z,75.92
2019-01-08T02:15:02.531Z,75.94
2019-01-08T02:17:31.922Z,76.01
2019-01-08T02:20:01.257Z,75.75
2019-01-08T02:22:30.718Z,75.81
2019-01-08T02:25:00.267Z,75.85
2019-01-08T02:27:29.686Z,75.86
2019-01-08T02:29:59.101Z,75.81
2019-01-08T02:32:28.630Z,76.04
2019-01-08T02:34:57.980Z,75.93
2019-01-08T02:37:27.405Z,75.63
2019-01-08T02:39:56.759Z,75.49
2019-01-08T02:42:26.101Z,75.58
2019-01-08T02:44:55.563Z,75.71
2019-01-08T02:47:24.952Z,75.77
2019-01-08T02:49:54.351Z,75.61
2019-01-08T02:52:23.674Z,75.38
2019-01-08T02:54:53.023Z,75.51
2019-01-08T02:57:22.387Z,75.71
2019-01-08T02:59:51.756Z,75.92
2019-01-08T03:02:21.219Z,75.65
2019-01-08T03:04:51.983Z,75.41
2019-01-08T03:07:21.382Z,75.61
2019-01-08T03:09:52.802Z,75.90
2019-01-08T03:12:22.180Z,76.10
2019-01-08T03:14:51.510Z,76.02
2019-01-08T03:17:20.839Z,75.16
2019-01-08T03:19:50.179Z,75.58
2019-01-08T03:22:21.377Z,75.45
2019-01-08T03:24:50.734Z,75.88
2019-01-08T03:27:23.079Z,75.37
2019-01-08T03:29:52.534Z,75.61
2019-01-08T03:32:22.044Z,75.68
2019-01-08T03:34:51.518Z,75.20
2019-01-08T03:37:21.313Z,74.96
2019-01-08T03:39:50.670Z,75.29
2019-01-08T03:42:20.123Z,75.13
2019-01-08T03:44:49.443Z,75.11
2019-01-08T03:47:18.829Z,75.35
2019-01-08T03:49:48.139Z,75.50
2019-01-08T03:52:17.592Z,75.57
2019-01-08T03:54:47.130Z,75.54
2019-01-08T03:57:16.596Z,75.19
2019-01-08T03:59:45.962Z,74.74
2019-01-08T04:02:16.585Z,74.73
2019-01-08T04:04:45.956Z,74.78
2019-01-08T04:07:15.398Z,74.51
2019-01-08T04:09:44.718Z,74.30
2019-01-08T04:12:14.256Z,74.24
2019-01-08T04:14:43.668Z,74.37
2019-01-08T04:17:13.060Z,74.09
2019-01-08T04:19:42.420Z,73.87
2019-01-08T04:22:12.059Z,73.69
2019-01-08T04:24:41.561Z,73.52
2019-01-08T04:27:10.926Z,73.86
2019-01-08T04:29:50.181Z,74.10
2019-01-08T04:32:12.920Z,74.02
2019-01-08T04:34:42.372Z,73.84
2019-01-08T04:37:11.953Z,73.59
2019-01-08T04:39:41.371Z,73.53
2019-01-08T04:42:10.828Z,73.90
2019-01-08T04:44:40.204Z,73.54
2019-01-08T04:47:09.755Z,73.84
2019-01-08T04:49:39.216Z,73.95
2019-01-08T04:52:08.615Z,74.20
2019-01-08T04:54:37.982Z,74.38
2019-01-08T04:57:07.368Z,74.36
2019-01-08T04:59:36.878Z,74.11
2019-01-08T05:02:06.419Z,73.83
2019-01-08T05:04:35.859Z,73.92
2019-01-08T05:07:05.184Z,74.01
2019-01-08T05:09:34.593Z,74.29
2019-01-08T05:12:04.033Z,74.58
2019-01-08T05:14:33.432Z,74.18
2019-01-08T05:17:02.801Z,74.24
2019-01-08T05:19:32.266Z,73.85
2019-01-08T05:22:01.729Z,73.88
2019-01-08T05:24:31.327Z,74.24
2019-01-08T05:27:00.674Z,74.15
2019-01-08T05:29:30.037Z,73.74
2019-01-08T05:31:59.631Z,74.32
2019-01-08T05:34:29.034Z,74.27
2019-01-08T05:36:58.426Z,73.88
2019-01-08T05:39:27.863Z,73.71
2019-01-08T05:41:57.310Z,74.10
2019-01-08T05:44:26.665Z,73.58
2019-01-08T05:46:56.430Z,73.60
2019-01-08T05:49:26.125Z,73.31
2019-01-08T05:51:57.531Z,73.98
2019-01-08T05:54:27.138Z,73.61
2019-01-08T05:56:56.516Z,73.85
2019-01-08T05:59:25.930Z,74.06
2019-01-08T06:01:55.289Z,74.08
2019-01-08T06:04:24.702Z,73.42
2019-01-08T06:06:56.582Z,73.35
2019-01-08T06:09:26.021Z,73.81
2019-01-08T06:11:55.354Z,73.67
2019-01-08T06:14:24.748Z,73.86
2019-01-08T06:16:54.142Z,74.13
2019-01-08T06:19:23.910Z,73.84
2019-01-08T06:21:53.228Z,73.95
2019-01-08T06:24:22.560Z,73.83
2019-01-08T06:26:51.878Z,72.96
2019-01-08T06:29:21.238Z,73.32
2019-01-08T06:31:50.642Z,73.33
2019-01-08T06:34:19.975Z,73.73
2019-01-08T06:36:49.331Z,73.37
2019-01-08T06:39:18.821Z,73.91
2019-01-08T06:41:48.317Z,73.52
2019-01-08T06:44:17.657Z,72.78
2019-01-08T06:46:47.062Z,73.11
2019-01-08T06:49:16.763Z,72.83
2019-01-08T06:51:46.100Z,72.07
2019-01-08T06:54:15.433Z,72.40
2019-01-08T06:56:44.769Z,71.28
2019-01-08T06:59:14.165Z,71.25
2019-01-08T07:01:43.635Z,71.01
2019-01-08T07:04:13.043Z,70.88
2019-01-08T07:06:44.534Z,70.75
2019-01-08T07:09:13.941Z,71.15
2019-01-08T07:11:46.059Z,71.40
2019-01-08T07:14:15.818Z,71.33
2019-01-08T07:16:45.185Z,71.50
2019-01-08T07:19:14.520Z,71.73
2019-01-08T07:21:43.861Z,71.63
2019-01-08T07:24:13.305Z,70.18
2019-01-08T07:26:42.725Z,70.37
2019-01-08T07:29:12.116Z,70.95
2019-01-08T07:31:41.511Z,70.73
2019-01-08T07:34:10.889Z,70.79
2019-01-08T07:36:40.306Z,70.20
2019-01-08T07:39:09.651Z,70.42
2019-01-08T07:41:39.010Z,71.14
2019-01-08T07:44:08.417Z,70.53
2019-01-08T07:46:37.826Z,70.13
2019-01-08T07:49:07.169Z,70.64
2019-01-08T07:51:36.498Z,69.74
2019-01-08T07:54:05.877Z,70.14
2019-01-08T07:56:35.200Z,70.09
2019-01-08T07:59:04.558Z,69.99
2019-01-08T08:01:34.011Z,70.31
2019-01-08T08:04:03.461Z,69.65
2019-01-08T08:06:32.864Z,70.45
2019-01-08T08:09:02.168Z,69.67
2019-01-08T08:11:31.577Z,68.46
2019-01-08T08:14:01.019Z,67.98
2019-01-08T08:16:30.414Z,68.12
2019-01-08T08:18:59.767Z,67.76
2019-01-08T08:21:29.122Z,67.07
2019-01-08T08:23:58.496Z,66.99
2019-01-08T08:26:27.871Z,67.29
2019-01-08T08:28:57.238Z,67.44
2019-01-08T08:31:26.663Z,67.25
2019-01-08T08:33:56.144Z,67.17
2019-01-08T08:36:25.515Z,66.65
2019-01-08T08:38:54.887Z,67.05
2019-01-08T08:41:24.293Z,66.85
2019-01-08T08:43:53.711Z,67.14
2019-01-08T08:46:26.120Z,67.37
2019-01-08T08:48:55.777Z,67.28
2019-01-08T08:51:25.218Z,67.21
2019-01-08T08:53:54.638Z,67.07
2019-01-08T08:56:24.022Z,66.67
2019-01-08T08:58:53.518Z,66.19
2019-01-08T09:01:22.941Z,66.07
2019-01-08T09:03:52.333Z,66.23
2019-01-08T09:06:21.752Z,65.51
2019-01-08T09:08:51.203Z,65.32
2019-01-08T09:11:22.634Z,65.38
2019-01-08T09:13:51.956Z,63.76
2019-01-08T09:16:21.414Z,63.62
2019-01-08T09:18:51.331Z,64.37
2019-01-08T09:21:20.766Z,64.54
2019-01-08T09:23:52.072Z,64.21
2019-01-08T09:26:21.479Z,64.41
2019-01-08T09:28:50.888Z,64.32
2019-01-08T09:31:20.318Z,63.64
2019-01-08T09:33:49.675Z,62.26
2019-01-08T09:36:19.106Z,61.58
2019-01-08T09:38:48.493Z,59.83
2019-01-08T09:41:17.855Z,58.80
2019-01-08T09:43:47.501Z,58.06
2019-01-08T09:46:17.007Z,56.31
2019-01-08T09:48:46.399Z,55.36
2019-01-08T09:51:15.870Z,55.41
2019-01-08T09:53:45.252Z,55.49
2019-01-08T09:56:14.684Z,54.66
2019-01-08T09:58:44.677Z,55.21
2019-01-08T10:01:14.070Z,55.54
2019-01-08T10:03:43.420Z,53.76
2019-01-08T10:06:12.857Z,53.27
2019-01-08T10:08:42.202Z,52.99
2019-01-08T10:11:11.598Z,52.43
2019-01-08T10:13:40.951Z,52.77
2019-01-08T10:16:10.265Z,51.84
2019-01-08T10:18:39.584Z,50.58
2019-01-08T10:21:09.117Z,50.28
2019-01-08T10:23:38.540Z,50.53
2019-01-08T10:26:07.881Z,49.37
2019-01-08T10:28:37.224Z,47.86
2019-01-08T10:31:06.628Z,48.02
2019-01-08T10:33:36.012Z,48.50
2019-01-08T10:36:05.403Z,49.10
2019-01-08T10:38:34.720Z,47.47
2019-01-08T10:41:04.071Z,47.31
2019-01-08T10:43:33.518Z,47.21
2019-01-08T10:46:02.881Z,47.22
2019-01-08T10:48:32.233Z,47.26
2019-01-08T10:51:01.677Z,47.29
2019-01-08T10:53:31.051Z,45.46
2019-01-08T10:56:00.422Z,45.30
2019-01-08T10:58:29.824Z,45.79
2019-01-08T11:00:59.236Z,46.40
2019-01-08T11:03:28.648Z,47.98
2019-01-08T11:05:58.967Z,47.58
2019-01-08T11:08:28.339Z,46.68
2019-01-08T11:10:57.674Z,46.37
2019-01-08T11:13:27.032Z,46.46
2019-01-08T11:15:56.396Z,46.52
2019-01-08T11:18:25.757Z,46.14
2019-01-08T11:20:55.110Z,45.93
2019-01-08T11:23:24.519Z,45.32
2019-01-08T11:25:53.837Z,45.46
2019-01-08T11:28:23.158Z,44.63
2019-01-08T11:30:52.531Z,43.83
2019-01-08T11:33:21.885Z,42.30
2019-01-08T11:35:51.233Z,43.91
2019-01-08T11:38:20.603Z,44.66
2019-01-08T11:40:50.005Z,42.09
2019-01-08T11:43:19.373Z,42.78
2019-01-08T11:45:48.866Z,41.47
2019-01-08T11:48:18.213Z,41.65
2019-01-08T11:50:47.571Z,41.65
2019-01-08T11:53:16.907Z,42.67
2019-01-08T11:55:46.294Z,42.44
2019-01-08T11:58:15.714Z,41.06
2019-01-08T12:00:45.084Z,42.25
2019-01-08T12:03:14.503Z,42.30
2019-01-08T12:05:43.827Z,42.34
2019-01-08T12:08:13.183Z,40.22
2019-01-08T12:10:42.541Z,38.20
2019-01-08T12:13:11.916Z,37.67
2019-01-08T12:15:41.287Z,38.75
2019-01-08T12:18:10.662Z,39.85
2019-01-08T12:20:40.070Z,37.68
2019-01-08T12:23:09.406Z,37.03
2019-01-08T12:25:38.792Z,36.96
2019-01-08T12:28:08.190Z,37.01
2019-01-08T12:30:37.594Z,38.23
2019-01-08T12:33:07.046Z,38.39
2019-01-08T12:35:36.935Z,39.16
2019-01-08T12:38:10.119Z,38.15
2019-01-08T12:40:39.497Z,37.85
2019-01-08T12:43:09.352Z,37.07
2019-01-08T12:45:38.695Z,38.12
2019-01-08T12:48:08.072Z,38.10
2019-01-08T12:50:37.387Z,37.82
2019-01-08T12:53:06.709Z,38.43
2019-01-08T12:55:36.047Z,38.60
2019-01-08T12:58:05.383Z,39.30
2019-01-08T13:00:34.866Z,38.56
2019-01-08T13:03:04.181Z,37.97
2019-01-08T13:05:35.950Z,36.79
2019-01-08T13:08:05.337Z,35.41
2019-01-08T13:10:34.727Z,36.12
2019-01-08T13:13:04.091Z,36.68
2019-01-08T13:15:33.524Z,37.29
2019-01-08T13:18:02.899Z,36.41
2019-01-08T13:20:32.363Z,37.13
2019-01-08T13:23:01.944Z,39.16
2019-01-08T13:25:31.489Z,39.29
2019-01-08T13:28:00.890Z,39.21
2019-01-08T13:30:30.301Z,38.78
2019-01-08T13:32:59.698Z,38.69
2019-01-08T13:35:29.147Z,37.98
2019-01-08T13:37:58.611Z,38.04
2019-01-08T13:40:27.958Z,38.52
2019-01-08T13:42:57.318Z,37.75
2019-01-08T13:45:26.719Z,37.16
2019-01-08T13:47:56.064Z,36.28
2019-01-08T13:50:25.714Z,37.22
2019-01-08T13:52:55.103Z,39.10
2019-01-08T13:55:24.450Z,39.49
2019-01-08T13:57:53.858Z,39.21
2019-01-08T14:00:23.251Z,38.99
2019-01-08T14:02:52.556Z,39.19
2019-01-08T14:05:22.049Z,38.98
2019-01-08T14:07:51.390Z,38.85
2019-01-08T14:10:20.775Z,38.17
2019-01-08T14:12:51.567Z,38.35
2019-01-08T14:15:20.941Z,38.46
2019-01-08T14:17:50.319Z,38.62
2019-01-08T14:20:20.215Z,39.46
2019-01-08T14:22:49.703Z,39.04
2019-01-08T14:25:22.756Z,39.28
2019-01-08T14:27:52.240Z,39.97
2019-01-08T14:30:21.725Z,40.58
2019-01-08T14:32:51.104Z,41.98
2019-01-08T14:35:20.532Z,43.26
2019-01-08T14:37:49.982Z,43.33
2019-01-08T14:40:19.396Z,43.66
2019-01-08T14:42:51.155Z,44.14
2019-01-08T14:45:20.532Z,45.61
2019-01-08T14:47:49.951Z,45.57
2019-01-08T14:50:19.363Z,45.74
2019-01-08T14:52:48.750Z,46.43
2019-01-08T14:55:18.125Z,46.87
2019-01-08T14:57:49.175Z,46.97
2019-01-08T15:00:18.498Z,46.80
2019-01-08T15:02:49.685Z,47.94
2019-01-08T15:05:18.903Z,48.43
2019-01-08T15:07:48.299Z,48.46
2019-01-08T15:10:17.633Z,47.94
2019-01-08T15:12:48.578Z,48.03
2019-01-08T15:15:17.976Z,48.87
2019-01-08T15:17:47.347Z,48.23
2019-01-08T15:20:16.772Z,49.57
2019-01-08T15:22:46.371Z,49.54
2019-01-08T15:25:15.791Z,49.41
2019-01-08T15:27:45.217Z,50.02
2019-01-08T15:30:14.693Z,50.31
2019-01-08T15:32:44.135Z,50.07
2019-01-08T15:35:13.498Z,50.40
2019-01-08T15:37:42.889Z,50.82
2019-01-08T15:40:12.265Z,51.30
2019-01-08T15:42:41.703Z,51.01
2019-01-08T15:45:11.081Z,51.33
2019-01-08T15:47:40.487Z,52.32
2019-01-08T15:50:09.867Z,52.71
2019-01-08T15:52:39.243Z,52.23
2019-01-08T15:55:08.622Z,53.12
2019-01-08T15:57:38.041Z,52.65
2019-01-08T16:00:08.751Z,53.07
2019-01-08T16:02:38.124Z,54.33
2019-01-08T16:05:08.219Z,53.85
2019-01-08T16:07:37.580Z,54.42
2019-01-08T16:23:01.799Z,56.92
2019-01-08T16:25:31.163Z,56.04
2019-01-08T16:28:00.538Z,55.72
2019-01-08T16:30:29.934Z,56.20
2019-01-08T21:28:34.115Z,61.57
2019-01-08T21:31:03.492Z,62.33
2019-01-08T21:33:32.863Z,61.62
2019-01-08T21:36:02.241Z,61.33
2019-01-08T21:38:31.768Z,60.64
2019-01-08T21:41:01.165Z,60.33
2019-01-08T21:43:30.534Z,59.62
2019-01-08T21:45:59.879Z,59.64
2019-01-08T21:48:29.361Z,59.16
2019-01-08T21:50:59.101Z,60.05
2019-01-08T21:53:28.447Z,59.79
2019-01-08T21:55:59.855Z,60.01
2019-01-08T21:58:29.193Z,60.62
2019-01-08T22:00:58.633Z,60.66
2019-01-08T22:03:27.978Z,59.78
2019-01-08T22:05:57.340Z,60.08
2019-01-08T22:08:26.705Z,59.37
2019-01-08T22:10:56.042Z,59.75
2019-01-08T22:13:25.374Z,59.59
2019-01-08T22:15:54.755Z,60.17
2019-01-08T22:18:24.121Z,59.77
2019-01-08T22:20:53.652Z,60.01
2019-01-08T22:23:23.039Z,60.23
2019-01-08T22:25:52.375Z,60.24
2019-01-08T22:28:21.766Z,60.26
2019-01-08T22:30:51.220Z,60.75
2019-01-08T22:33:20.582Z,60.06
2019-01-08T22:35:49.991Z,59.76
2019-01-08T22:38:19.313Z,60.12
2019-01-08T22:40:48.670Z,60.39
2019-01-08T22:43:18.176Z,60.41
2019-01-08T22:45:47.481Z,60.36
2019-01-08T22:48:16.853Z,60.38
2019-01-08T22:50:46.302Z,60.43
2019-01-08T22:53:16.432Z,59.97
2019-01-08T22:55:45.878Z,60.02
2019-01-08T22:58:15.444Z,60.42
2019-01-08T23:01:03.382Z,60.50
2019-01-08T23:03:32.914Z,60.51
2019-01-08T23:06:02.286Z,60.86
2019-01-08T23:08:34.893Z,60.86
2019-01-08T23:11:04.331Z,60.82
2019-01-08T23:13:33.861Z,61.08
2019-01-08T23:16:03.196Z,61.23
2019-01-08T23:18:32.609Z,61.22
2019-01-08T23:21:01.940Z,61.08
2019-01-08T23:23:31.323Z,61.06
2019-01-08T23:26:00.673Z,60.87
2019-01-08T23:28:30.151Z,61.58
2019-01-08T23:30:59.499Z,61.67
2019-01-08T23:33:28.888Z,61.00
2019-01-08T23:35:58.308Z,61.02
2019-01-08T23:38:27.657Z,60.98
2019-01-08T23:40:57.029Z,61.02
2019-01-08T23:43:26.394Z,61.38
2019-01-08T23:45:55.715Z,61.49
2019-01-08T23:48:25.083Z,61.46
2019-01-08T23:50:54.535Z,61.24
2019-01-08T23:53:30.616Z,61.01
2019-01-08T23:56:03.780Z,61.26
2019-01-08T23:58:33.118Z,61.36
